sensor_id;sensor_type;location;lat;lon;timestamp;pressure;altitude;pressure_sealevel;temperature;humidity
71778;BME280;59609;52.430;4.668;2024-01-15T00:01:07;100375.97;;;3.38;100.00
71778;BME280;59609;52.430;4.668;2024-01-15T00:03:32;100378.75;;;3.48;100.00
71778;BME280;59609;52.430;4.668;2024-01-15T00:05:58;100369.00;;;3.45;100.00
71778;BME280;59609;52.430;4.668;2024-01-15T00:08:23;100352.00;;;3.32;100.00
71778;BME280;59609;52.430;4.668;2024-01-15T00:10:49;100368.34;;;3.32;100.00
71778;BME280;59609;52.430;4.668;2024-01-15T00:13:16;100376.56;;;3.42;100.00
71778;BME280;59609;52.430;4.668;2024-01-15T00:15:41;100350.25;;;3.31;100.00
71778;BME280;59609;52.430;4.668;2024-01-15T00:18:06;100361.53;;;3.47;100.00
71778;BME280;59609;52.430;4.668;2024-01-15T00:20:32;100336.44;;;3.44;100.00
71778;BME280;59609;52.430;4.668;2024-01-15T00:22:57;100344.28;;;3.37;100.00
71778;BME280;59609;52.430;4.668;2024-01-15T00:25:23;100347.59;;;3.41;100.00
71778;BME280;59609;52.430;4.668;2024-01-15T00:27:49;100332.00;;;3.43;100.00
71778;BME280;59609;52.430;4.668;2024-01-15T00:30:14;100342.31;;;3.39;100.00
71778;BME280;59609;52.430;4.668;2024-01-15T00:32:39;100338.56;;;3.40;100.00
71778;BME280;59609;52.430;4.668;2024-01-15T00:35:05;100337.66;;;3.30;100.00
71778;BME280;59609;52.430;4.668;2024-01-15T00:37:30;100336.81;;;3.30;100.00
71778;BME280;59609;52.430;4.668;2024-01-15T00:39:56;100328.31;;;3.23;100.00
71778;BME280;59609;52.430;4.668;2024-01-15T00:42:21;100333.09;;;3.10;100.00
71778;BME280;59609;52.430;4.668;2024-01-15T00:44:47;100338.59;;;3.20;100.00
71778;BME280;59609;52.430;4.668;2024-01-15T00:47:12;100313.50;;;3.16;100.00
71778;BME280;59609;52.430;4.668;2024-01-15T00:49:38;100306.59;;;3.12;100.00
71778;BME280;59609;52.430;4.668;2024-01-15T00:52:03;100307.25;;;3.25;100.00
71778;BME280;59609;52.430;4.668;2024-01-15T00:54:29;100304.13;;;3.30;100.00
71778;BME280;59609;52.430;4.668;2024-01-15T00:56:54;100287.31;;;3.25;100.00
71778;BME280;59609;52.430;4.668;2024-01-15T00:59:20;100270.41;;;3.21;100.00
71778;BME280;59609;52.430;4.668;2024-01-15T01:01:46;100281.72;;;3.17;100.00
71778;BME280;59609;52.430;4.668;2024-01-15T01:04:12;100305.66;;;3.23;100.00
71778;BME280;59609;52.430;4.668;2024-01-15T01:06:37;100306.25;;;3.26;100.00
71778;BME280;59609;52.430;4.668;2024-01-15T01:09:03;100308.72;;;3.29;100.00
71778;BME280;59609;52.430;4.668;2024-01-15T01:11:28;100289.44;;;3.21;100.00
71778;BME280;59609;52.430;4.668;2024-01-15T01:13:54;100299.94;;;3.26;100.00
71778;BME280;59609;52.430;4.668;2024-01-15T01:16:19;100324.56;;;3.24;100.00
71778;BME280;59609;52.430;4.668;2024-01-15T01:18:45;100333.47;;;3.05;100.00
71778;BME280;59609;52.430;4.668;2024-01-15T01:21:10;100344.13;;;2.77;100.00
71778;BME280;59609;52.430;4.668;2024-01-15T01:23:35;100352.22;;;2.56;100.00
71778;BME280;59609;52.430;4.668;2024-01-15T01:26:01;100338.47;;;2.26;100.00
71778;BME280;59609;52.430;4.668;2024-01-15T01:28:27;100348.72;;;2.22;100.00
71778;BME280;59609;52.430;4.668;2024-01-15T01:30:53;100319.84;;;2.10;100.00
71778;BME280;59609;52.430;4.668;2024-01-15T01:33:19;100332.06;;;2.27;100.00
71778;BME280;59609;52.430;4.668;2024-01-15T01:35:45;100331.47;;;2.44;100.00
71778;BME280;59609;52.430;4.668;2024-01-15T01:38:12;100315.31;;;2.42;100.00
71778;BME280;59609;52.430;4.668;2024-01-15T01:40:37;100321.97;;;2.49;100.00
71778;BME280;59609;52.430;4.668;2024-01-15T01:43:04;100315.03;;;2.56;100.00
71778;BME280;59609;52.430;4.668;2024-01-15T01:45:30;100293.06;;;2.48;100.00
71778;BME280;59609;52.430;4.668;2024-01-15T01:47:55;100299.44;;;2.58;100.00
71778;BME280;59609;52.430;4.668;2024-01-15T01:50:21;100282.91;;;2.50;100.00
71778;BME280;59609;52.430;4.668;2024-01-15T01:52:46;100307.06;;;2.65;100.00
71778;BME280;59609;52.430;4.668;2024-01-15T01:55:12;100276.28;;;2.43;100.00
71778;BME280;59609;52.430;4.668;2024-01-15T01:57:38;100298.03;;;2.64;100.00
71778;BME280;59609;52.430;4.668;2024-01-15T02:00:05;100306.34;;;2.63;100.00
71778;BME280;59609;52.430;4.668;2024-01-15T02:02:32;100289.97;;;2.53;100.00
71778;BME280;59609;52.430;4.668;2024-01-15T02:04:57;100277.34;;;2.52;100.00
71778;BME280;59609;52.430;4.668;2024-01-15T02:07:23;100296.19;;;2.65;100.00
71778;BME280;59609;52.430;4.668;2024-01-15T02:09:49;100293.47;;;2.65;100.00
71778;BME280;59609;52.430;4.668;2024-01-15T02:12:15;100284.94;;;2.69;100.00
71778;BME280;59609;52.430;4.668;2024-01-15T02:14:41;100275.25;;;2.76;100.00
71778;BME280;59609;52.430;4.668;2024-01-15T02:17:06;100262.00;;;2.83;100.00
71778;BME280;59609;52.430;4.668;2024-01-15T02:19:31;100242.47;;;2.78;100.00
71778;BME280;59609;52.430;4.668;2024-01-15T02:21:57;100254.63;;;2.94;100.00
71778;BME280;59609;52.430;4.668;2024-01-15T02:24:22;100296.31;;;3.16;100.00
71778;BME280;59609;52.430;4.668;2024-01-15T02:26:48;100283.78;;;3.03;100.00
71778;BME280;59609;52.430;4.668;2024-01-15T02:29:15;100278.84;;;3.18;100.00
71778;BME280;59609;52.430;4.668;2024-01-15T02:31:40;100258.00;;;3.07;100.00
71778;BME280;59609;52.430;4.668;2024-01-15T02:34:06;100282.03;;;3.23;100.00
71778;BME280;59609;52.430;4.668;2024-01-15T02:36:31;100279.25;;;3.44;100.00
71778;BME280;59609;52.430;4.668;2024-01-15T02:38:57;100281.53;;;3.39;100.00
71778;BME280;59609;52.430;4.668;2024-01-15T02:41:22;100259.41;;;3.23;100.00
71778;BME280;59609;52.430;4.668;2024-01-15T02:43:47;100288.06;;;3.27;100.00
71778;BME280;59609;52.430;4.668;2024-01-15T02:46:13;100281.97;;;3.14;100.00
71778;BME280;59609;52.430;4.668;2024-01-15T02:48:38;100286.13;;;2.97;100.00
71778;BME280;59609;52.430;4.668;2024-01-15T02:51:05;100261.34;;;2.70;100.00
71778;BME280;59609;52.430;4.668;2024-01-15T02:53:30;100271.72;;;2.65;100.00
71778;BME280;59609;52.430;4.668;2024-01-15T02:55:55;100272.97;;;2.60;100.00
71778;BME280;59609;52.430;4.668;2024-01-15T02:58:21;100269.16;;;2.63;100.00
71778;BME280;59609;52.430;4.668;2024-01-15T03:00:47;100307.22;;;2.84;100.00
71778;BME280;59609;52.430;4.668;2024-01-15T03:03:12;100281.34;;;2.69;100.00
71778;BME280;59609;52.430;4.668;2024-01-15T03:05:38;100253.94;;;2.40;100.00
71778;BME280;59609;52.430;4.668;2024-01-15T03:08:03;100280.06;;;2.52;100.00
71778;BME280;59609;52.430;4.668;2024-01-15T03:10:29;100250.97;;;2.32;100.00
71778;BME280;59609;52.430;4.668;2024-01-15T03:12:54;100270.84;;;2.43;100.00
71778;BME280;59609;52.430;4.668;2024-01-15T03:15:20;100278.78;;;2.35;100.00
71778;BME280;59609;52.430;4.668;2024-01-15T03:17:45;100243.78;;;2.10;100.00
71778;BME280;59609;52.430;4.668;2024-01-15T03:20:11;100261.31;;;2.06;100.00
71778;BME280;59609;52.430;4.668;2024-01-15T03:22:36;100272.91;;;2.19;100.00
71778;BME280;59609;52.430;4.668;2024-01-15T03:25:02;100273.25;;;2.15;100.00
71778;BME280;59609;52.430;4.668;2024-01-15T03:27:28;100269.94;;;2.11;100.00
71778;BME280;59609;52.430;4.668;2024-01-15T03:29:54;100253.69;;;2.00;100.00
71778;BME280;59609;52.430;4.668;2024-01-15T03:32:19;100268.59;;;2.05;100.00
71778;BME280;59609;52.430;4.668;2024-01-15T03:34:45;100247.94;;;2.14;100.00
71778;BME280;59609;52.430;4.668;2024-01-15T03:37:12;100236.31;;;2.23;100.00
71778;BME280;59609;52.430;4.668;2024-01-15T03:39:37;100248.78;;;2.26;100.00
71778;BME280;59609;52.430;4.668;2024-01-15T03:42:03;100249.13;;;2.32;100.00
71778;BME280;59609;52.430;4.668;2024-01-15T03:44:29;100235.16;;;2.37;100.00
71778;BME280;59609;52.430;4.668;2024-01-15T03:46:54;100253.16;;;2.70;100.00
71778;BME280;59609;52.430;4.668;2024-01-15T03:49:19;100274.25;;;2.56;100.00
71778;BME280;59609;52.430;4.668;2024-01-15T03:51:45;100265.09;;;2.26;100.00
71778;BME280;59609;52.430;4.668;2024-01-15T03:54:10;100241.09;;;1.99;100.00
71778;BME280;59609;52.430;4.668;2024-01-15T03:56:35;100250.91;;;2.11;100.00
71778;BME280;59609;52.430;4.668;2024-01-15T03:59:01;100256.19;;;2.24;100.00
71778;BME280;59609;52.430;4.668;2024-01-15T04:01:26;100260.19;;;2.20;100.00
71778;BME280;59609;52.430;4.668;2024-01-15T04:03:51;100266.84;;;2.16;100.00
71778;BME280;59609;52.430;4.668;2024-01-15T04:06:17;100246.50;;;2.10;100.00
71778;BME280;59609;52.430;4.668;2024-01-15T04:08:42;100257.13;;;2.13;100.00
71778;BME280;59609;52.430;4.668;2024-01-15T04:11:08;100233.66;;;2.01;100.00
71778;BME280;59609;52.430;4.668;2024-01-15T04:13:33;100237.84;;;2.05;100.00
71778;BME280;59609;52.430;4.668;2024-01-15T04:16:00;100231.91;;;2.11;100.00
71778;BME280;59609;52.430;4.668;2024-01-15T04:18:25;100236.00;;;2.05;100.00
71778;BME280;59609;52.430;4.668;2024-01-15T04:20:51;100227.47;;;2.10;100.00
71778;BME280;59609;52.430;4.668;2024-01-15T04:23:16;100223.28;;;2.06;100.00
71778;BME280;59609;52.430;4.668;2024-01-15T04:25:42;100220.34;;;1.98;100.00
71778;BME280;59609;52.430;4.668;2024-01-15T04:28:08;100190.28;;;1.79;100.00
71778;BME280;59609;52.430;4.668;2024-01-15T04:30:34;100194.22;;;1.75;100.00
71778;BME280;59609;52.430;4.668;2024-01-15T04:32:59;100220.00;;;1.80;100.00
71778;BME280;59609;52.430;4.668;2024-01-15T04:35:25;100197.97;;;1.63;100.00
71778;BME280;59609;52.430;4.668;2024-01-15T04:37:50;100228.50;;;1.87;100.00
71778;BME280;59609;52.430;4.668;2024-01-15T04:40:16;100209.03;;;1.82;100.00
71778;BME280;59609;52.430;4.668;2024-01-15T04:42:41;100225.50;;;2.01;100.00
71778;BME280;59609;52.430;4.668;2024-01-15T04:45:07;100179.41;;;1.90;100.00
71778;BME280;59609;52.430;4.668;2024-01-15T04:47:32;100213.13;;;2.19;100.00
71778;BME280;59609;52.430;4.668;2024-01-15T04:49:57;100201.00;;;2.23;100.00
71778;BME280;59609;52.430;4.668;2024-01-15T04:52:23;100190.59;;;2.28;100.00
71778;BME280;59609;52.430;4.668;2024-01-15T04:54:48;100175.41;;;2.26;100.00
71778;BME280;59609;52.430;4.668;2024-01-15T04:57:14;100185.16;;;2.28;100.00
71778;BME280;59609;52.430;4.668;2024-01-15T04:59:40;100165.41;;;2.26;100.00
71778;BME280;59609;52.430;4.668;2024-01-15T05:02:05;100201.09;;;2.33;100.00
71778;BME280;59609;52.430;4.668;2024-01-15T05:04:30;100187.28;;;2.25;100.00
71778;BME280;59609;52.430;4.668;2024-01-15T05:06:56;100188.50;;;2.21;100.00
71778;BME280;59609;52.430;4.668;2024-01-15T05:09:21;100196.03;;;2.28;100.00
71778;BME280;59609;52.430;4.668;2024-01-15T05:11:47;100200.84;;;2.25;100.00
71778;BME280;59609;52.430;4.668;2024-01-15T05:14:12;100191.13;;;2.22;100.00
71778;BME280;59609;52.430;4.668;2024-01-15T05:16:38;100168.25;;;2.25;100.00
71778;BME280;59609;52.430;4.668;2024-01-15T05:19:04;100191.06;;;2.33;100.00
71778;BME280;59609;52.430;4.668;2024-01-15T05:21:29;100177.97;;;2.27;100.00
71778;BME280;59609;52.430;4.668;2024-01-15T05:23:55;100178.22;;;2.35;100.00
71778;BME280;59609;52.430;4.668;2024-01-15T05:26:20;100186.13;;;2.27;100.00
71778;BME280;59609;52.430;4.668;2024-01-15T05:28:45;100177.66;;;2.21;100.00
71778;BME280;59609;52.430;4.668;2024-01-15T05:31:11;100177.97;;;2.27;100.00
71778;BME280;59609;52.430;4.668;2024-01-15T05:33:37;100148.69;;;2.10;100.00
71778;BME280;59609;52.430;4.668;2024-01-15T05:36:02;100170.78;;;2.37;100.00
71778;BME280;59609;52.430;4.668;2024-01-15T05:38:28;100173.72;;;2.45;100.00
71778;BME280;59609;52.430;4.668;2024-01-15T05:40:53;100177.41;;;2.44;100.00
71778;BME280;59609;52.430;4.668;2024-01-15T05:43:19;100131.06;;;2.25;100.00
71778;BME280;59609;52.430;4.668;2024-01-15T05:45:45;100168.06;;;2.58;100.00
71778;BME280;59609;52.430;4.668;2024-01-15T05:48:11;100169.31;;;2.54;100.00
71778;BME280;59609;52.430;4.668;2024-01-15T05:50:37;100122.59;;;2.39;100.00
71778;BME280;59609;52.430;4.668;2024-01-15T05:53:03;100136.09;;;2.50;100.00
71778;BME280;59609;52.430;4.668;2024-01-15T05:55:29;100142.56;;;2.49;100.00
71778;BME280;59609;52.430;4.668;2024-01-15T05:57:54;100157.66;;;2.63;100.00
71778;BME280;59609;52.430;4.668;2024-01-15T06:00:19;100125.75;;;2.44;100.00
71778;BME280;59609;52.430;4.668;2024-01-15T06:02:45;100169.25;;;2.65;100.00
71778;BME280;59609;52.430;4.668;2024-01-15T06:05:10;100152.16;;;2.53;100.00
71778;BME280;59609;52.430;4.668;2024-01-15T06:07:36;100163.09;;;2.63;100.00
71778;BME280;59609;52.430;4.668;2024-01-15T06:10:02;100171.97;;;2.86;100.00
71778;BME280;59609;52.430;4.668;2024-01-15T06:12:28;100184.31;;;2.90;100.00
71778;BME280;59609;52.430;4.668;2024-01-15T06:14:53;100197.16;;;2.67;100.00
71778;BME280;59609;52.430;4.668;2024-01-15T06:17:19;100177.94;;;2.38;100.00
71778;BME280;59609;52.430;4.668;2024-01-15T06:19:44;100194.72;;;2.12;100.00
71778;BME280;59609;52.430;4.668;2024-01-15T06:22:12;100184.31;;;1.96;100.00
71778;BME280;59609;52.430;4.668;2024-01-15T06:24:37;100192.22;;;1.88;100.00
71778;BME280;59609;52.430;4.668;2024-01-15T06:27:03;100147.03;;;1.55;100.00
71778;BME280;59609;52.430;4.668;2024-01-15T06:29:28;100149.84;;;1.53;100.00
71778;BME280;59609;52.430;4.668;2024-01-15T06:31:53;100184.25;;;1.75;100.00
71778;BME280;59609;52.430;4.668;2024-01-15T06:34:19;100184.41;;;1.63;100.00
71778;BME280;59609;52.430;4.668;2024-01-15T06:36:44;100169.25;;;1.49;100.00
71778;BME280;59609;52.430;4.668;2024-01-15T06:39:10;100192.16;;;1.67;100.00
71778;BME280;59609;52.430;4.668;2024-01-15T06:41:35;100183.97;;;1.78;100.00
71778;BME280;59609;52.430;4.668;2024-01-15T06:44:06;100172.22;;;1.89;100.00
71778;BME280;59609;52.430;4.668;2024-01-15T06:46:32;100163.03;;;2.01;100.00
71778;BME280;59609;52.430;4.668;2024-01-15T06:48:57;100149.94;;;2.06;100.00
71778;BME280;59609;52.430;4.668;2024-01-15T06:51:22;100163.56;;;2.27;100.00
71778;BME280;59609;52.430;4.668;2024-01-15T06:53:48;100175.81;;;2.42;100.00
71778;BME280;59609;52.430;4.668;2024-01-15T06:56:13;100182.59;;;2.27;100.00
71778;BME280;59609;52.430;4.668;2024-01-15T06:58:38;100160.22;;;2.02;100.00
71778;BME280;59609;52.430;4.668;2024-01-15T07:01:04;100176.97;;;2.07;100.00
71778;BME280;59609;52.430;4.668;2024-01-15T07:03:29;100188.09;;;2.04;100.00
71778;BME280;59609;52.430;4.668;2024-01-15T07:05:55;100181.59;;;1.96;100.00
71778;BME280;59609;52.430;4.668;2024-01-15T07:08:20;100160.63;;;1.87;100.00
71778;BME280;59609;52.430;4.668;2024-01-15T07:10:49;100152.97;;;1.81;100.00
71778;BME280;59609;52.430;4.668;2024-01-15T07:13:14;100146.34;;;1.74;100.00
71778;BME280;59609;52.430;4.668;2024-01-15T07:15:40;100162.00;;;1.81;100.00
71778;BME280;59609;52.430;4.668;2024-01-15T07:18:05;100158.22;;;1.73;100.00
71778;BME280;59609;52.430;4.668;2024-01-15T07:20:33;100140.97;;;1.63;100.00
71778;BME280;59609;52.430;4.668;2024-01-15T07:23:00;100145.34;;;1.75;100.00
71778;BME280;59609;52.430;4.668;2024-01-15T07:25:26;100141.22;;;1.91;100.00
71778;BME280;59609;52.430;4.668;2024-01-15T07:27:51;100167.25;;;1.94;100.00
71778;BME280;59609;52.430;4.668;2024-01-15T07:30:22;100172.88;;;2.13;100.00
71778;BME280;59609;52.430;4.668;2024-01-15T07:32:47;100174.41;;;2.06;100.00
71778;BME280;59609;52.430;4.668;2024-01-15T07:35:14;100197.66;;;1.88;100.00
71778;BME280;59609;52.430;4.668;2024-01-15T07:37:40;100219.06;;;1.59;100.00
71778;BME280;59609;52.430;4.668;2024-01-15T07:40:06;100179.25;;;1.37;100.00
71778;BME280;59609;52.430;4.668;2024-01-15T07:42:35;100200.94;;;1.48;100.00
71778;BME280;59609;52.430;4.668;2024-01-15T07:45:00;100196.38;;;1.38;100.00
71778;BME280;59609;52.430;4.668;2024-01-15T07:47:26;100183.59;;;1.40;100.00
71778;BME280;59609;52.430;4.668;2024-01-15T07:49:53;100200.09;;;1.48;100.00
71778;BME280;59609;52.430;4.668;2024-01-15T07:52:19;100178.00;;;1.41;100.00
71778;BME280;59609;52.430;4.668;2024-01-15T07:54:45;100196.38;;;1.49;100.00
71778;BME280;59609;52.430;4.668;2024-01-15T07:57:10;100171.25;;;1.36;100.00
71778;BME280;59609;52.430;4.668;2024-01-15T07:59:35;100185.13;;;1.53;100.00
71778;BME280;59609;52.430;4.668;2024-01-15T08:02:01;100192.44;;;1.53;100.00
71778;BME280;59609;52.430;4.668;2024-01-15T08:04:27;100180.88;;;1.40;100.00
71778;BME280;59609;52.430;4.668;2024-01-15T08:06:52;100188.25;;;1.60;100.00
71778;BME280;59609;52.430;4.668;2024-01-15T08:09:18;100154.31;;;1.54;100.00
71778;BME280;59609;52.430;4.668;2024-01-15T08:11:43;100169.28;;;1.81;100.00
71778;BME280;59609;52.430;4.668;2024-01-15T08:14:09;100188.88;;;1.95;100.00
71778;BME280;59609;52.430;4.668;2024-01-15T08:16:36;100197.53;;;1.89;100.00
71778;BME280;59609;52.430;4.668;2024-01-15T08:19:01;100168.06;;;1.74;100.00
71778;BME280;59609;52.430;4.668;2024-01-15T08:21:27;100168.19;;;1.83;100.00
71778;BME280;59609;52.430;4.668;2024-01-15T08:23:56;100141.53;;;1.77;100.00
71778;BME280;59609;52.430;4.668;2024-01-15T08:26:21;100118.72;;;1.69;100.00
71778;BME280;59609;52.430;4.668;2024-01-15T08:28:47;100130.31;;;1.71;100.00
71778;BME280;59609;52.430;4.668;2024-01-15T08:31:13;100134.59;;;1.84;100.00
71778;BME280;59609;52.430;4.668;2024-01-15T08:33:38;100152.41;;;2.09;100.00
71778;BME280;59609;52.430;4.668;2024-01-15T08:36:04;100142.47;;;2.19;100.00
71778;BME280;59609;52.430;4.668;2024-01-15T08:38:29;100120.59;;;2.21;100.00
71778;BME280;59609;52.430;4.668;2024-01-15T08:40:54;100149.44;;;2.33;100.00
71778;BME280;59609;52.430;4.668;2024-01-15T08:43:22;100129.72;;;2.40;100.00
71778;BME280;59609;52.430;4.668;2024-01-15T08:45:47;100156.22;;;2.59;100.00
71778;BME280;59609;52.430;4.668;2024-01-15T08:48:13;100158.25;;;2.67;100.00
71778;BME280;59609;52.430;4.668;2024-01-15T08:50:38;100133.38;;;2.50;100.00
71778;BME280;59609;52.430;4.668;2024-01-15T08:53:04;100140.50;;;2.42;100.00
71778;BME280;59609;52.430;4.668;2024-01-15T08:55:29;100171.72;;;2.47;100.00
71778;BME280;59609;52.430;4.668;2024-01-15T08:57:55;100151.22;;;2.23;100.00
71778;BME280;59609;52.430;4.668;2024-01-15T09:00:20;100170.28;;;2.43;100.00
71778;BME280;59609;52.430;4.668;2024-01-15T09:02:45;100139.75;;;2.19;100.00
71778;BME280;59609;52.430;4.668;2024-01-15T09:05:11;100156.16;;;2.18;100.00
71778;BME280;59609;52.430;4.668;2024-01-15T09:07:36;100177.22;;;2.36;100.00
71778;BME280;59609;52.430;4.668;2024-01-15T09:10:02;100149.38;;;2.23;100.00
71778;BME280;59609;52.430;4.668;2024-01-15T09:12:27;100181.72;;;2.47;100.00
71778;BME280;59609;52.430;4.668;2024-01-15T09:14:53;100172.47;;;2.70;100.00
71778;BME280;59609;52.430;4.668;2024-01-15T09:17:19;100161.56;;;2.70;100.00
71778;BME280;59609;52.430;4.668;2024-01-15T09:19:45;100114.47;;;2.70;100.00
71778;BME280;59609;52.430;4.668;2024-01-15T09:22:12;100143.00;;;3.05;100.00
71778;BME280;59609;52.430;4.668;2024-01-15T09:24:40;100161.97;;;3.17;100.00
71778;BME280;59609;52.430;4.668;2024-01-15T09:27:05;100180.22;;;3.05;100.00
71778;BME280;59609;52.430;4.668;2024-01-15T09:29:31;100167.25;;;2.88;100.00
71778;BME280;59609;52.430;4.668;2024-01-15T09:31:57;100195.38;;;2.77;100.00
71778;BME280;59609;52.430;4.668;2024-01-15T09:34:22;100167.78;;;2.61;100.00
71778;BME280;59609;52.430;4.668;2024-01-15T09:36:47;100171.13;;;2.65;100.00
71778;BME280;59609;52.430;4.668;2024-01-15T09:39:14;100172.78;;;2.56;100.00
71778;BME280;59609;52.430;4.668;2024-01-15T09:41:41;100138.16;;;2.37;100.00
71778;BME280;59609;52.430;4.668;2024-01-15T09:44:07;100157.72;;;2.52;100.00
71778;BME280;59609;52.430;4.668;2024-01-15T09:46:34;100182.47;;;2.70;100.00
71778;BME280;59609;52.430;4.668;2024-01-15T09:49:00;100170.56;;;2.71;100.00
71778;BME280;59609;52.430;4.668;2024-01-15T09:51:28;100180.34;;;2.73;100.00
71778;BME280;59609;52.430;4.668;2024-01-15T09:53:57;100190.81;;;2.78;100.00
71778;BME280;59609;52.430;4.668;2024-01-15T09:56:23;100207.59;;;2.83;100.00
71778;BME280;59609;52.430;4.668;2024-01-15T09:58:48;100185.25;;;2.79;100.00
71778;BME280;59609;52.430;4.668;2024-01-15T10:01:17;100176.22;;;2.79;100.00
71778;BME280;59609;52.430;4.668;2024-01-15T10:03:42;100210.75;;;2.88;100.00
71778;BME280;59609;52.430;4.668;2024-01-15T10:06:08;100203.75;;;2.85;100.00
71778;BME280;59609;52.430;4.668;2024-01-15T10:08:36;100204.94;;;2.72;100.00
71778;BME280;59609;52.430;4.668;2024-01-15T10:11:02;100226.84;;;3.51;100.00
71778;BME280;59609;52.430;4.668;2024-01-15T10:13:30;100222.03;;;3.64;100.00
71778;BME280;59609;52.430;4.668;2024-01-15T10:15:56;100224.94;;;3.12;100.00
71778;BME280;59609;52.430;4.668;2024-01-15T10:18:23;100201.56;;;2.79;100.00
71778;BME280;59609;52.430;4.668;2024-01-15T10:20:48;100223.91;;;2.83;100.00
71778;BME280;59609;52.430;4.668;2024-01-15T10:23:14;100197.84;;;2.59;100.00
71778;BME280;59609;52.430;4.668;2024-01-15T10:25:42;100237.84;;;2.69;100.00
71778;BME280;59609;52.430;4.668;2024-01-15T10:28:07;100245.63;;;2.73;100.00
71778;BME280;59609;52.430;4.668;2024-01-15T10:30:33;100234.13;;;2.70;100.00
71778;BME280;59609;52.430;4.668;2024-01-15T10:33:03;100246.72;;;2.71;100.00
71778;BME280;59609;52.430;4.668;2024-01-15T10:35:33;100207.72;;;2.60;100.00
71778;BME280;59609;52.430;4.668;2024-01-15T10:38:05;100243.69;;;2.85;100.00
71778;BME280;59609;52.430;4.668;2024-01-15T10:40:31;100257.47;;;2.72;100.00
71778;BME280;59609;52.430;4.668;2024-01-15T10:42:56;100226.63;;;2.30;100.00
71778;BME280;59609;52.430;4.668;2024-01-15T10:45:22;100197.00;;;2.06;100.00
71778;BME280;59609;52.430;4.668;2024-01-15T10:47:48;100247.19;;;2.23;100.00
71778;BME280;59609;52.430;4.668;2024-01-15T10:50:27;100259.31;;;2.08;100.00
71778;BME280;59609;52.430;4.668;2024-01-15T10:52:54;100231.63;;;1.82;100.00
71778;BME280;59609;52.430;4.668;2024-01-15T10:55:21;100270.69;;;2.77;100.00
71778;BME280;59609;52.430;4.668;2024-01-15T10:57:51;100216.34;;;2.13;100.00
71778;BME280;59609;52.430;4.668;2024-01-15T11:00:30;100268.28;;;2.31;100.00
71778;BME280;59609;52.430;4.668;2024-01-15T11:03:07;100230.69;;;2.04;100.00
71778;BME280;59609;52.430;4.668;2024-01-15T11:05:42;100249.94;;;2.12;100.00
71778;BME280;59609;52.430;4.668;2024-01-15T11:08:11;100251.69;;;2.02;100.00
71778;BME280;59609;52.430;4.668;2024-01-15T11:13:14;100264.38;;;2.76;100.00
71778;BME280;59609;52.430;4.668;2024-01-15T11:16:00;100253.41;;;3.29;100.00
71778;BME280;59609;52.430;4.668;2024-01-15T11:19:01;100227.75;;;3.31;100.00
71778;BME280;59609;52.430;4.668;2024-01-15T11:21:19;100265.22;;;3.39;100.00
71778;BME280;59609;52.430;4.668;2024-01-15T11:23:46;100254.91;;;3.42;100.00
71778;BME280;59609;52.430;4.668;2024-01-15T11:28:54;100226.44;;;4.05;100.00
71778;BME280;59609;52.430;4.668;2024-01-15T11:31:20;100259.47;;;4.41;100.00
71778;BME280;59609;52.430;4.668;2024-01-15T11:33:49;100252.44;;;4.19;100.00
71778;BME280;59609;52.430;4.668;2024-01-15T11:36:15;100241.78;;;3.97;100.00
71778;BME280;59609;52.430;4.668;2024-01-15T11:38:40;100241.88;;;3.86;100.00
71778;BME280;59609;52.430;4.668;2024-01-15T11:41:15;100244.09;;;3.61;100.00
71778;BME280;59609;52.430;4.668;2024-01-15T11:43:43;100273.69;;;3.76;100.00
71778;BME280;59609;52.430;4.668;2024-01-15T11:46:12;100275.41;;;3.77;100.00
71778;BME280;59609;52.430;4.668;2024-01-15T11:48:43;100273.69;;;3.76;100.00
71778;BME280;59609;52.430;4.668;2024-01-15T11:51:11;100272.94;;;3.74;100.00
71778;BME280;59609;52.430;4.668;2024-01-15T11:53:45;100269.97;;;3.77;100.00
71778;BME280;59609;52.430;4.668;2024-01-15T11:56:16;100267.69;;;3.82;100.00
71778;BME280;59609;52.430;4.668;2024-01-15T11:58:44;100264.38;;;3.78;100.00
71778;BME280;59609;52.430;4.668;2024-01-15T12:01:13;100270.59;;;3.90;100.00
71778;BME280;59609;52.430;4.668;2024-01-15T12:03:39;100272.13;;;3.83;100.00
71778;BME280;59609;52.430;4.668;2024-01-15T12:06:08;100282.75;;;3.86;100.00
71778;BME280;59609;52.430;4.668;2024-01-15T12:08:34;100307.41;;;3.54;100.00
71778;BME280;59609;52.430;4.668;2024-01-15T12:11:00;100314.03;;;3.10;100.00
71778;BME280;59609;52.430;4.668;2024-01-15T12:13:26;100286.78;;;2.69;100.00
71778;BME280;59609;52.430;4.668;2024-01-15T12:15:54;100278.47;;;2.49;100.00
71778;BME280;59609;52.430;4.668;2024-01-15T12:18:19;100309.94;;;2.63;100.00
71778;BME280;59609;52.430;4.668;2024-01-15T12:20:45;100297.94;;;3.28;100.00
71778;BME280;59609;52.430;4.668;2024-01-15T12:23:14;100312.16;;;3.92;100.00
71778;BME280;59609;52.430;4.668;2024-01-15T12:25:40;100321.78;;;4.36;100.00
71778;BME280;59609;52.430;4.668;2024-01-15T12:28:06;100299.13;;;4.54;100.00
71778;BME280;59609;52.430;4.668;2024-01-15T12:30:33;100311.22;;;5.00;100.00
71778;BME280;59609;52.430;4.668;2024-01-15T12:33:04;100306.31;;;5.13;100.00
71778;BME280;59609;52.430;4.668;2024-01-15T12:35:29;100314.06;;;5.08;100.00
71778;BME280;59609;52.430;4.668;2024-01-15T12:37:55;100290.34;;;4.60;100.00
71778;BME280;59609;52.430;4.668;2024-01-15T12:40:21;100307.16;;;4.46;100.00
71778;BME280;59609;52.430;4.668;2024-01-15T12:42:47;100309.59;;;4.49;100.00
71778;BME280;59609;52.430;4.668;2024-01-15T12:45:13;100295.19;;;4.28;100.00
71778;BME280;59609;52.430;4.668;2024-01-15T12:47:40;100305.72;;;3.93;100.00
71778;BME280;59609;52.430;4.668;2024-01-15T12:50:07;100304.56;;;3.86;100.00